Rogers, North Dakota
Current Conditions -  °F | °C
As of 2:15 PM on Thursday 30 Oct 2014 (Local Time) from KBAC Reporting Station
Overcast Overcast  
Wind Chill: 25°   Ceiling: 2100
Heat Index: 36°   Visibility: 10mi
Dew Point: 30°   Wind: 21mph
Humidity: 81%   Direction: 360°N
Pressure: 30.34"   Gusts: 29mph
Location:  47.07°N, 98.2°W
Report Text: KBAC 301915Z AUTO 36018G25KT 10SM OVC021 02/M01 A3034 RMK AO2
Loading
Personal Weather Stations






























Interactive Weather Map
Tropical Storm Tracking
New forecast layout! Learn more

10-Day Weather Forecast

Advertisements
Track Severe Weather on mobile